sensor_id;sensor_type;location;lat;lon;timestamp;P1;durP1;ratioP1;P2;durP2;ratioP2
14203;SDS011;7185;51.854;6.622;2023-04-29T00:00:55;67.53;;;31.88;;
14203;SDS011;7185;51.854;6.622;2023-04-29T00:03:28;65.10;;;30.55;;
14203;SDS011;7185;51.854;6.622;2023-04-29T00:06:03;58.92;;;28.10;;
14203;SDS011;7185;51.854;6.622;2023-04-29T00:08:37;65.00;;;31.40;;
14203;SDS011;7185;51.854;6.622;2023-04-29T00:11:12;62.42;;;29.23;;
14203;SDS011;7185;51.854;6.622;2023-04-29T00:13:44;63.85;;;29.20;;
14203;SDS011;7185;51.854;6.622;2023-04-29T00:16:18;60.03;;;27.95;;
14203;SDS011;7185;51.854;6.622;2023-04-29T00:18:51;59.75;;;29.25;;
14203;SDS011;7185;51.854;6.622;2023-04-29T00:21:23;65.82;;;30.42;;
14203;SDS011;7185;51.854;6.622;2023-04-29T00:23:56;63.13;;;28.45;;
14203;SDS011;7185;51.854;6.622;2023-04-29T00:26:28;60.78;;;28.45;;
14203;SDS011;7185;51.854;6.622;2023-04-29T00:29:03;58.78;;;27.50;;
14203;SDS011;7185;51.854;6.622;2023-04-29T00:31:35;59.78;;;27.17;;
14203;SDS011;7185;51.854;6.622;2023-04-29T00:34:08;60.53;;;27.30;;
14203;SDS011;7185;51.854;6.622;2023-04-29T00:36:40;58.78;;;27.35;;
14203;SDS011;7185;51.854;6.622;2023-04-29T00:39:12;59.13;;;27.10;;
14203;SDS011;7185;51.854;6.622;2023-04-29T00:41:44;55.05;;;25.50;;
14203;SDS011;7185;51.854;6.622;2023-04-29T00:44:15;59.85;;;26.48;;
14203;SDS011;7185;51.854;6.622;2023-04-29T00:46:47;56.30;;;26.02;;
14203;SDS011;7185;51.854;6.622;2023-04-29T00:49:21;59.15;;;25.88;;
14203;SDS011;7185;51.854;6.622;2023-04-29T00:51:54;56.30;;;26.27;;
14203;SDS011;7185;51.854;6.622;2023-04-29T00:54:28;58.53;;;27.23;;
14203;SDS011;7185;51.854;6.622;2023-04-29T00:57:00;56.40;;;25.75;;
14203;SDS011;7185;51.854;6.622;2023-04-29T00:59:34;57.35;;;25.67;;
14203;SDS011;7185;51.854;6.622;2023-04-29T01:02:06;58.00;;;27.17;;
14203;SDS011;7185;51.854;6.622;2023-04-29T01:04:40;54.83;;;24.83;;
14203;SDS011;7185;51.854;6.622;2023-04-29T01:07:13;53.03;;;24.67;;
14203;SDS011;7185;51.854;6.622;2023-04-29T01:09:52;50.70;;;24.50;;
14203;SDS011;7185;51.854;6.622;2023-04-29T01:12:37;52.05;;;23.65;;
14203;SDS011;7185;51.854;6.622;2023-04-29T01:15:17;51.75;;;23.40;;
14203;SDS011;7185;51.854;6.622;2023-04-29T01:17:54;50.80;;;23.75;;
14203;SDS011;7185;51.854;6.622;2023-04-29T01:20:31;57.08;;;25.83;;
14203;SDS011;7185;51.854;6.622;2023-04-29T01:23:04;55.25;;;25.17;;
14203;SDS011;7185;51.854;6.622;2023-04-29T01:25:37;52.53;;;25.55;;
14203;SDS011;7185;51.854;6.622;2023-04-29T01:28:13;52.80;;;25.38;;
14203;SDS011;7185;51.854;6.622;2023-04-29T01:30:58;51.08;;;23.15;;
14203;SDS011;7185;51.854;6.622;2023-04-29T01:33:39;54.08;;;24.40;;
14203;SDS011;7185;51.854;6.622;2023-04-29T01:36:17;56.97;;;24.73;;
14203;SDS011;7185;51.854;6.622;2023-04-29T01:38:59;55.58;;;24.33;;
14203;SDS011;7185;51.854;6.622;2023-04-29T01:41:41;51.63;;;24.95;;
14203;SDS011;7185;51.854;6.622;2023-04-29T01:44:22;51.38;;;24.02;;
14203;SDS011;7185;51.854;6.622;2023-04-29T01:46:57;52.45;;;24.05;;
14203;SDS011;7185;51.854;6.622;2023-04-29T01:49:34;48.92;;;23.92;;
14203;SDS011;7185;51.854;6.622;2023-04-29T01:52:06;49.10;;;24.50;;
14203;SDS011;7185;51.854;6.622;2023-04-29T01:54:38;49.45;;;23.13;;
14203;SDS011;7185;51.854;6.622;2023-04-29T01:57:11;48.60;;;24.20;;
14203;SDS011;7185;51.854;6.622;2023-04-29T01:59:43;54.30;;;25.88;;
14203;SDS011;7185;51.854;6.622;2023-04-29T02:02:15;51.47;;;25.48;;
14203;SDS011;7185;51.854;6.622;2023-04-29T02:04:50;53.20;;;23.52;;
14203;SDS011;7185;51.854;6.622;2023-04-29T02:07:21;50.33;;;24.85;;
14203;SDS011;7185;51.854;6.622;2023-04-29T02:09:53;56.33;;;24.55;;
14203;SDS011;7185;51.854;6.622;2023-04-29T02:12:30;51.22;;;25.70;;
14203;SDS011;7185;51.854;6.622;2023-04-29T02:15:06;54.20;;;25.38;;
14203;SDS011;7185;51.854;6.622;2023-04-29T02:17:41;53.50;;;24.13;;
14203;SDS011;7185;51.854;6.622;2023-04-29T02:20:13;54.08;;;25.73;;
14203;SDS011;7185;51.854;6.622;2023-04-29T02:22:45;53.50;;;25.35;;
14203;SDS011;7185;51.854;6.622;2023-04-29T02:25:17;54.10;;;26.02;;
14203;SDS011;7185;51.854;6.622;2023-04-29T02:27:50;51.75;;;25.15;;
14203;SDS011;7185;51.854;6.622;2023-04-29T02:30:22;52.35;;;25.65;;
14203;SDS011;7185;51.854;6.622;2023-04-29T02:32:53;55.17;;;25.33;;
14203;SDS011;7185;51.854;6.622;2023-04-29T02:35:25;58.40;;;26.77;;
14203;SDS011;7185;51.854;6.622;2023-04-29T02:37:57;50.22;;;25.52;;
14203;SDS011;7185;51.854;6.622;2023-04-29T02:40:29;55.38;;;26.00;;
14203;SDS011;7185;51.854;6.622;2023-04-29T02:43:02;52.70;;;25.30;;
14203;SDS011;7185;51.854;6.622;2023-04-29T02:45:34;52.40;;;25.15;;
14203;SDS011;7185;51.854;6.622;2023-04-29T02:48:06;56.10;;;25.98;;
14203;SDS011;7185;51.854;6.622;2023-04-29T02:50:38;53.83;;;25.33;;
14203;SDS011;7185;51.854;6.622;2023-04-29T02:53:09;53.38;;;25.80;;
14203;SDS011;7185;51.854;6.622;2023-04-29T02:55:41;52.20;;;25.20;;
14203;SDS011;7185;51.854;6.622;2023-04-29T02:58:14;56.65;;;26.60;;
14203;SDS011;7185;51.854;6.622;2023-04-29T03:00:46;52.83;;;25.42;;
14203;SDS011;7185;51.854;6.622;2023-04-29T03:03:18;54.33;;;25.92;;
14203;SDS011;7185;51.854;6.622;2023-04-29T03:05:49;53.28;;;27.08;;
14203;SDS011;7185;51.854;6.622;2023-04-29T03:08:21;57.05;;;25.75;;
14203;SDS011;7185;51.854;6.622;2023-04-29T03:10:53;52.38;;;25.13;;
14203;SDS011;7185;51.854;6.622;2023-04-29T03:13:26;52.80;;;24.98;;
14203;SDS011;7185;51.854;6.622;2023-04-29T03:15:57;51.80;;;25.23;;
14203;SDS011;7185;51.854;6.622;2023-04-29T03:18:30;54.10;;;26.23;;
14203;SDS011;7185;51.854;6.622;2023-04-29T03:21:02;55.35;;;27.38;;
14203;SDS011;7185;51.854;6.622;2023-04-29T03:23:34;53.22;;;26.42;;
14203;SDS011;7185;51.854;6.622;2023-04-29T03:26:08;51.35;;;25.48;;
14203;SDS011;7185;51.854;6.622;2023-04-29T03:28:41;54.92;;;25.55;;
14203;SDS011;7185;51.854;6.622;2023-04-29T03:31:13;59.22;;;26.23;;
14203;SDS011;7185;51.854;6.622;2023-04-29T03:33:45;53.90;;;26.67;;
14203;SDS011;7185;51.854;6.622;2023-04-29T03:36:17;57.08;;;27.00;;
14203;SDS011;7185;51.854;6.622;2023-04-29T03:38:49;50.88;;;25.02;;
14203;SDS011;7185;51.854;6.622;2023-04-29T03:41:20;57.03;;;25.83;;
14203;SDS011;7185;51.854;6.622;2023-04-29T03:43:55;51.80;;;25.17;;
14203;SDS011;7185;51.854;6.622;2023-04-29T03:46:29;49.13;;;25.45;;
14203;SDS011;7185;51.854;6.622;2023-04-29T03:49:01;48.67;;;25.23;;
14203;SDS011;7185;51.854;6.622;2023-04-29T03:51:33;49.63;;;24.38;;
14203;SDS011;7185;51.854;6.622;2023-04-29T03:54:05;53.28;;;25.40;;
14203;SDS011;7185;51.854;6.622;2023-04-29T03:56:37;47.70;;;25.20;;
14203;SDS011;7185;51.854;6.622;2023-04-29T03:59:11;47.08;;;25.13;;
14203;SDS011;7185;51.854;6.622;2023-04-29T04:01:43;52.35;;;25.80;;
14203;SDS011;7185;51.854;6.622;2023-04-29T04:04:15;47.00;;;25.90;;
14203;SDS011;7185;51.854;6.622;2023-04-29T04:06:46;42.28;;;23.65;;
14203;SDS011;7185;51.854;6.622;2023-04-29T04:09:20;47.08;;;25.05;;
14203;SDS011;7185;51.854;6.622;2023-04-29T04:11:52;43.17;;;22.73;;
14203;SDS011;7185;51.854;6.622;2023-04-29T04:14:25;45.53;;;25.17;;
14203;SDS011;7185;51.854;6.622;2023-04-29T04:16:57;46.78;;;25.00;;
14203;SDS011;7185;51.854;6.622;2023-04-29T04:19:29;43.80;;;23.27;;
14203;SDS011;7185;51.854;6.622;2023-04-29T04:22:01;43.85;;;23.52;;
14203;SDS011;7185;51.854;6.622;2023-04-29T04:24:33;42.95;;;22.80;;
14203;SDS011;7185;51.854;6.622;2023-04-29T04:27:05;41.90;;;22.58;;
14203;SDS011;7185;51.854;6.622;2023-04-29T04:29:38;39.03;;;23.33;;
14203;SDS011;7185;51.854;6.622;2023-04-29T04:32:10;45.22;;;23.70;;
14203;SDS011;7185;51.854;6.622;2023-04-29T04:34:41;50.17;;;24.83;;
14203;SDS011;7185;51.854;6.622;2023-04-29T04:37:13;44.38;;;23.50;;
14203;SDS011;7185;51.854;6.622;2023-04-29T04:39:45;43.65;;;23.73;;
14203;SDS011;7185;51.854;6.622;2023-04-29T04:42:17;42.33;;;23.60;;
14203;SDS011;7185;51.854;6.622;2023-04-29T04:44:51;44.40;;;23.20;;
14203;SDS011;7185;51.854;6.622;2023-04-29T04:47:23;41.45;;;22.00;;
14203;SDS011;7185;51.854;6.622;2023-04-29T04:49:54;42.40;;;22.00;;
14203;SDS011;7185;51.854;6.622;2023-04-29T04:52:26;44.33;;;22.92;;
14203;SDS011;7185;51.854;6.622;2023-04-29T04:54:58;39.80;;;21.88;;
14203;SDS011;7185;51.854;6.622;2023-04-29T04:57:30;45.83;;;24.52;;
14203;SDS011;7185;51.854;6.622;2023-04-29T05:00:05;44.42;;;23.05;;
14203;SDS011;7185;51.854;6.622;2023-04-29T05:02:38;43.03;;;22.88;;
14203;SDS011;7185;51.854;6.622;2023-04-29T05:05:10;36.75;;;22.17;;
14203;SDS011;7185;51.854;6.622;2023-04-29T05:07:41;41.22;;;22.00;;
14203;SDS011;7185;51.854;6.622;2023-04-29T05:10:13;42.00;;;24.15;;
14203;SDS011;7185;51.854;6.622;2023-04-29T05:12:45;37.90;;;21.25;;
14203;SDS011;7185;51.854;6.622;2023-04-29T05:15:18;38.42;;;22.48;;
14203;SDS011;7185;51.854;6.622;2023-04-29T05:17:49;40.03;;;21.75;;
14203;SDS011;7185;51.854;6.622;2023-04-29T05:20:21;43.55;;;20.75;;
14203;SDS011;7185;51.854;6.622;2023-04-29T05:22:53;44.47;;;22.25;;
14203;SDS011;7185;51.854;6.622;2023-04-29T05:25:25;35.95;;;21.67;;
14203;SDS011;7185;51.854;6.622;2023-04-29T05:27:57;37.45;;;20.30;;
14203;SDS011;7185;51.854;6.622;2023-04-29T05:30:30;40.30;;;21.30;;
14203;SDS011;7185;51.854;6.622;2023-04-29T05:33:02;36.35;;;21.13;;
14203;SDS011;7185;51.854;6.622;2023-04-29T05:35:34;38.67;;;21.33;;
14203;SDS011;7185;51.854;6.622;2023-04-29T05:38:06;38.13;;;20.92;;
14203;SDS011;7185;51.854;6.622;2023-04-29T05:40:37;38.88;;;20.73;;
14203;SDS011;7185;51.854;6.622;2023-04-29T05:43:09;36.25;;;20.23;;
14203;SDS011;7185;51.854;6.622;2023-04-29T05:45:43;38.55;;;21.17;;
14203;SDS011;7185;51.854;6.622;2023-04-29T05:48:17;38.95;;;21.00;;
14203;SDS011;7185;51.854;6.622;2023-04-29T05:50:48;34.78;;;20.73;;
14203;SDS011;7185;51.854;6.622;2023-04-29T05:53:20;34.88;;;20.98;;
14203;SDS011;7185;51.854;6.622;2023-04-29T05:55:52;33.17;;;19.05;;
14203;SDS011;7185;51.854;6.622;2023-04-29T05:58:23;35.85;;;20.48;;
14203;SDS011;7185;51.854;6.622;2023-04-29T06:00:57;37.72;;;21.00;;
14203;SDS011;7185;51.854;6.622;2023-04-29T06:03:29;38.17;;;20.52;;
14203;SDS011;7185;51.854;6.622;2023-04-29T06:06:01;36.28;;;20.30;;
14203;SDS011;7185;51.854;6.622;2023-04-29T06:08:33;36.03;;;20.02;;
14203;SDS011;7185;51.854;6.622;2023-04-29T06:11:04;32.97;;;19.33;;
14203;SDS011;7185;51.854;6.622;2023-04-29T06:13:36;36.17;;;19.77;;
14203;SDS011;7185;51.854;6.622;2023-04-29T06:16:09;35.00;;;19.63;;
14203;SDS011;7185;51.854;6.622;2023-04-29T06:18:41;34.72;;;20.17;;
14203;SDS011;7185;51.854;6.622;2023-04-29T06:21:13;35.13;;;20.80;;
14203;SDS011;7185;51.854;6.622;2023-04-29T06:23:45;37.13;;;20.42;;
14203;SDS011;7185;51.854;6.622;2023-04-29T06:26:16;39.97;;;20.13;;
14203;SDS011;7185;51.854;6.622;2023-04-29T06:28:50;37.97;;;20.85;;
14203;SDS011;7185;51.854;6.622;2023-04-29T06:31:23;36.90;;;20.00;;
14203;SDS011;7185;51.854;6.622;2023-04-29T06:33:54;35.40;;;20.00;;
14203;SDS011;7185;51.854;6.622;2023-04-29T06:36:26;37.95;;;20.23;;
14203;SDS011;7185;51.854;6.622;2023-04-29T06:38:58;38.58;;;20.77;;
14203;SDS011;7185;51.854;6.622;2023-04-29T06:41:30;33.17;;;19.95;;
14203;SDS011;7185;51.854;6.622;2023-04-29T06:44:03;35.05;;;19.23;;
14203;SDS011;7185;51.854;6.622;2023-04-29T06:46:36;34.83;;;19.65;;
14203;SDS011;7185;51.854;6.622;2023-04-29T06:49:08;35.22;;;20.40;;
14203;SDS011;7185;51.854;6.622;2023-04-29T06:51:39;36.17;;;19.75;;
14203;SDS011;7185;51.854;6.622;2023-04-29T06:54:11;36.40;;;19.38;;
14203;SDS011;7185;51.854;6.622;2023-04-29T06:56:43;33.95;;;20.80;;
14203;SDS011;7185;51.854;6.622;2023-04-29T06:59:16;38.90;;;21.25;;
14203;SDS011;7185;51.854;6.622;2023-04-29T07:01:49;40.80;;;21.63;;
14203;SDS011;7185;51.854;6.622;2023-04-29T07:04:21;39.80;;;21.00;;
14203;SDS011;7185;51.854;6.622;2023-04-29T07:06:52;39.25;;;21.90;;
14203;SDS011;7185;51.854;6.622;2023-04-29T07:09:25;36.85;;;21.88;;
14203;SDS011;7185;51.854;6.622;2023-04-29T07:11:56;38.03;;;21.98;;
14203;SDS011;7185;51.854;6.622;2023-04-29T07:14:28;43.33;;;26.45;;
14203;SDS011;7185;51.854;6.622;2023-04-29T07:17:01;44.38;;;23.90;;
14203;SDS011;7185;51.854;6.622;2023-04-29T07:19:33;46.92;;;25.77;;
14203;SDS011;7185;51.854;6.622;2023-04-29T07:22:05;42.00;;;23.77;;
14203;SDS011;7185;51.854;6.622;2023-04-29T07:24:36;37.00;;;22.42;;
14203;SDS011;7185;51.854;6.622;2023-04-29T07:27:08;43.63;;;27.70;;
14203;SDS011;7185;51.854;6.622;2023-04-29T07:29:39;39.47;;;22.23;;
14203;SDS011;7185;51.854;6.622;2023-04-29T07:32:13;39.72;;;24.63;;
14203;SDS011;7185;51.854;6.622;2023-04-29T07:34:44;37.83;;;22.75;;
14203;SDS011;7185;51.854;6.622;2023-04-29T07:37:16;42.85;;;22.75;;
14203;SDS011;7185;51.854;6.622;2023-04-29T07:39:48;40.35;;;23.88;;
14203;SDS011;7185;51.854;6.622;2023-04-29T07:42:20;40.67;;;25.27;;
14203;SDS011;7185;51.854;6.622;2023-04-29T07:44:51;35.08;;;20.13;;
14203;SDS011;7185;51.854;6.622;2023-04-29T07:47:29;35.58;;;20.00;;
14203;SDS011;7185;51.854;6.622;2023-04-29T07:50:01;35.22;;;20.63;;
14203;SDS011;7185;51.854;6.622;2023-04-29T07:52:34;41.40;;;24.65;;
14203;SDS011;7185;51.854;6.622;2023-04-29T07:55:06;39.83;;;21.98;;
14203;SDS011;7185;51.854;6.622;2023-04-29T07:57:38;31.25;;;19.20;;
14203;SDS011;7185;51.854;6.622;2023-04-29T08:00:10;31.75;;;19.63;;
14203;SDS011;7185;51.854;6.622;2023-04-29T08:02:43;37.40;;;20.83;;
14203;SDS011;7185;51.854;6.622;2023-04-29T08:05:15;35.85;;;21.17;;
14203;SDS011;7185;51.854;6.622;2023-04-29T08:07:47;32.90;;;22.75;;
14203;SDS011;7185;51.854;6.622;2023-04-29T08:10:19;34.40;;;21.02;;
14203;SDS011;7185;51.854;6.622;2023-04-29T08:12:51;40.40;;;22.42;;
14203;SDS011;7185;51.854;6.622;2023-04-29T08:15:23;36.75;;;19.58;;
14203;SDS011;7185;51.854;6.622;2023-04-29T08:17:56;35.17;;;19.88;;
14203;SDS011;7185;51.854;6.622;2023-04-29T08:20:28;31.98;;;19.30;;
14203;SDS011;7185;51.854;6.622;2023-04-29T08:22:59;34.80;;;19.15;;
14203;SDS011;7185;51.854;6.622;2023-04-29T08:25:31;33.80;;;18.58;;
14203;SDS011;7185;51.854;6.622;2023-04-29T08:28:03;33.25;;;18.25;;
14203;SDS011;7185;51.854;6.622;2023-04-29T08:30:36;33.20;;;18.92;;
14203;SDS011;7185;51.854;6.622;2023-04-29T08:33:10;34.08;;;19.70;;
14203;SDS011;7185;51.854;6.622;2023-04-29T08:35:42;30.92;;;17.80;;
14203;SDS011;7185;51.854;6.622;2023-04-29T08:38:14;36.03;;;17.73;;
14203;SDS011;7185;51.854;6.622;2023-04-29T08:40:46;30.17;;;17.50;;
14203;SDS011;7185;51.854;6.622;2023-04-29T08:43:18;29.92;;;17.90;;
14203;SDS011;7185;51.854;6.622;2023-04-29T08:45:51;31.98;;;17.75;;
14203;SDS011;7185;51.854;6.622;2023-04-29T08:48:24;30.75;;;17.73;;
14203;SDS011;7185;51.854;6.622;2023-04-29T08:50:57;31.63;;;16.98;;
14203;SDS011;7185;51.854;6.622;2023-04-29T08:53:31;26.02;;;16.55;;
14203;SDS011;7185;51.854;6.622;2023-04-29T08:56:07;28.88;;;17.02;;
14203;SDS011;7185;51.854;6.622;2023-04-29T09:01:12;32.38;;;16.85;;
14203;SDS011;7185;51.854;6.622;2023-04-29T09:03:48;26.95;;;15.35;;
14203;SDS011;7185;51.854;6.622;2023-04-29T09:06:25;28.60;;;15.90;;
14203;SDS011;7185;51.854;6.622;2023-04-29T09:08:57;26.25;;;16.67;;
14203;SDS011;7185;51.854;6.622;2023-04-29T09:11:30;30.33;;;16.58;;
14203;SDS011;7185;51.854;6.622;2023-04-29T09:14:02;30.25;;;16.83;;
14203;SDS011;7185;51.854;6.622;2023-04-29T09:16:37;24.77;;;16.38;;
14203;SDS011;7185;51.854;6.622;2023-04-29T09:19:10;27.55;;;15.75;;
14203;SDS011;7185;51.854;6.622;2023-04-29T09:21:42;25.70;;;15.45;;
14203;SDS011;7185;51.854;6.622;2023-04-29T09:24:25;24.98;;;15.07;;
14203;SDS011;7185;51.854;6.622;2023-04-29T09:26:57;26.20;;;16.10;;
14203;SDS011;7185;51.854;6.622;2023-04-29T09:29:32;24.20;;;15.13;;
14203;SDS011;7185;51.854;6.622;2023-04-29T09:32:17;24.90;;;15.43;;
14203;SDS011;7185;51.854;6.622;2023-04-29T09:34:52;25.23;;;15.43;;
14203;SDS011;7185;51.854;6.622;2023-04-29T09:37:24;27.17;;;14.57;;
14203;SDS011;7185;51.854;6.622;2023-04-29T09:39:56;24.95;;;15.48;;
14203;SDS011;7185;51.854;6.622;2023-04-29T09:42:32;28.80;;;16.13;;
14203;SDS011;7185;51.854;6.622;2023-04-29T09:45:30;25.50;;;15.02;;
14203;SDS011;7185;51.854;6.622;2023-04-29T09:48:03;24.95;;;14.18;;
14203;SDS011;7185;51.854;6.622;2023-04-29T09:50:39;26.23;;;15.05;;
14203;SDS011;7185;51.854;6.622;2023-04-29T09:53:12;24.15;;;15.60;;
14203;SDS011;7185;51.854;6.622;2023-04-29T09:55:59;22.13;;;14.30;;
14203;SDS011;7185;51.854;6.622;2023-04-29T09:58:32;24.83;;;12.93;;
14203;SDS011;7185;51.854;6.622;2023-04-29T10:01:08;21.08;;;13.38;;
14203;SDS011;7185;51.854;6.622;2023-04-29T10:03:42;23.23;;;12.98;;
14203;SDS011;7185;51.854;6.622;2023-04-29T10:06:16;21.02;;;12.93;;
14203;SDS011;7185;51.854;6.622;2023-04-29T10:08:48;22.00;;;12.77;;
14203;SDS011;7185;51.854;6.622;2023-04-29T10:11:24;22.98;;;13.43;;
14203;SDS011;7185;51.854;6.622;2023-04-29T10:14:00;20.27;;;12.38;;
14203;SDS011;7185;51.854;6.622;2023-04-29T10:16:33;20.80;;;12.32;;
14203;SDS011;7185;51.854;6.622;2023-04-29T10:19:24;16.73;;;11.38;;
14203;SDS011;7185;51.854;6.622;2023-04-29T10:21:59;21.23;;;11.75;;
14203;SDS011;7185;51.854;6.622;2023-04-29T10:24:38;23.42;;;12.60;;
14203;SDS011;7185;51.854;6.622;2023-04-29T10:27:09;23.33;;;12.35;;
14203;SDS011;7185;51.854;6.622;2023-04-29T10:29:45;23.60;;;12.65;;
14203;SDS011;7185;51.854;6.622;2023-04-29T10:32:20;18.10;;;11.80;;
14203;SDS011;7185;51.854;6.622;2023-04-29T10:34:52;19.88;;;11.43;;
14203;SDS011;7185;51.854;6.622;2023-04-29T10:37:28;20.02;;;11.45;;
14203;SDS011;7185;51.854;6.622;2023-04-29T10:40:04;17.23;;;10.95;;
14203;SDS011;7185;51.854;6.622;2023-04-29T10:42:50;15.95;;;11.10;;
14203;SDS011;7185;51.854;6.622;2023-04-29T10:45:23;17.95;;;10.70;;
14203;SDS011;7185;51.854;6.622;2023-04-29T10:48:12;18.42;;;11.18;;
14203;SDS011;7185;51.854;6.622;2023-04-29T10:51:00;16.73;;;10.82;;
14203;SDS011;7185;51.854;6.622;2023-04-29T10:53:34;14.02;;;9.80;;
14203;SDS011;7185;51.854;6.622;2023-04-29T10:56:07;18.58;;;10.00;;
14203;SDS011;7185;51.854;6.622;2023-04-29T10:58:41;17.15;;;9.70;;
14203;SDS011;7185;51.854;6.622;2023-04-29T11:01:15;16.48;;;10.68;;
14203;SDS011;7185;51.854;6.622;2023-04-29T11:03:52;15.65;;;10.65;;
14203;SDS011;7185;51.854;6.622;2023-04-29T11:06:40;19.27;;;11.60;;
14203;SDS011;7185;51.854;6.622;2023-04-29T11:09:17;14.57;;;10.07;;
14203;SDS011;7185;51.854;6.622;2023-04-29T11:12:03;15.60;;;10.57;;
14203;SDS011;7185;51.854;6.622;2023-04-29T11:14:53;15.50;;;9.85;;
14203;SDS011;7185;51.854;6.622;2023-04-29T11:18:24;16.48;;;9.23;;
14203;SDS011;7185;51.854;6.622;2023-04-29T11:21:34;17.92;;;9.73;;
14203;SDS011;7185;51.854;6.622;2023-04-29T11:24:06;17.33;;;9.70;;
14203;SDS011;7185;51.854;6.622;2023-04-29T11:26:45;16.08;;;9.38;;
14203;SDS011;7185;51.854;6.622;2023-04-29T11:29:33;16.50;;;10.13;;
14203;SDS011;7185;51.854;6.622;2023-04-29T11:32:08;19.10;;;10.43;;
14203;SDS011;7185;51.854;6.622;2023-04-29T11:35:09;15.90;;;9.70;;
14203;SDS011;7185;51.854;6.622;2023-04-29T11:37:48;14.75;;;9.73;;
14203;SDS011;7185;51.854;6.622;2023-04-29T11:40:24;17.83;;;9.70;;
14203;SDS011;7185;51.854;6.622;2023-04-29T11:43:21;17.90;;;9.80;;
14203;SDS011;7185;51.854;6.622;2023-04-29T11:45:58;18.02;;;10.48;;
14203;SDS011;7185;51.854;6.622;2023-04-29T11:48:33;15.43;;;10.25;;
14203;SDS011;7185;51.854;6.622;2023-04-29T11:51:19;17.73;;;10.05;;
14203;SDS011;7185;51.854;6.622;2023-04-29T11:53:53;20.70;;;10.73;;
14203;SDS011;7185;51.854;6.622;2023-04-29T11:56:28;17.77;;;10.00;;
14203;SDS011;7185;51.854;6.622;2023-04-29T11:59:16;15.68;;;10.43;;
14203;SDS011;7185;51.854;6.622;2023-04-29T12:01:58;16.30;;;9.88;;
14203;SDS011;7185;51.854;6.622;2023-04-29T12:04:31;14.77;;;9.73;;
14203;SDS011;7185;51.854;6.622;2023-04-29T12:07:03;15.25;;;8.93;;
14203;SDS011;7185;51.854;6.622;2023-04-29T12:09:40;15.45;;;9.38;;
14203;SDS011;7185;51.854;6.622;2023-04-29T12:12:16;14.93;;;8.23;;
14203;SDS011;7185;51.854;6.622;2023-04-29T12:14:49;11.98;;;8.52;;
14203;SDS011;7185;51.854;6.622;2023-04-29T12:17:21;12.85;;;8.35;;
14203;SDS011;7185;51.854;6.622;2023-04-29T12:19:54;13.43;;;8.52;;
14203;SDS011;7185;51.854;6.622;2023-04-29T12:22:29;12.95;;;8.10;;
14203;SDS011;7185;51.854;6.622;2023-04-29T12:25:02;16.77;;;9.00;;
14203;SDS011;7185;51.854;6.622;2023-04-29T12:27:34;18.17;;;8.25;;
14203;SDS011;7185;51.854;6.622;2023-04-29T12:30:07;15.10;;;8.98;;
14203;SDS011;7185;51.854;6.622;2023-04-29T12:32:40;13.18;;;9.02;;
14203;SDS011;7185;51.854;6.622;2023-04-29T12:35:15;12.70;;;8.73;;
14203;SDS011;7185;51.854;6.622;2023-04-29T12:37:48;10.80;;;8.02;;
14203;SDS011;7185;51.854;6.622;2023-04-29T12:40:20;11.77;;;7.57;;
14203;SDS011;7185;51.854;6.622;2023-04-29T12:42:52;13.52;;;7.90;;
14203;SDS011;7185;51.854;6.622;2023-04-29T12:45:27;11.50;;;7.50;;
14203;SDS011;7185;51.854;6.622;2023-04-29T12:48:05;14.75;;;8.38;;
14203;SDS011;7185;51.854;6.622;2023-04-29T12:50:37;10.10;;;6.88;;
14203;SDS011;7185;51.854;6.622;2023-04-29T12:53:09;12.77;;;6.93;;
14203;SDS011;7185;51.854;6.622;2023-04-29T12:55:41;11.55;;;7.07;;
14203;SDS011;7185;51.854;6.622;2023-04-29T12:58:13;10.60;;;6.90;;
14203;SDS011;7185;51.854;6.622;2023-04-29T13:00:46;11.55;;;7.20;;
14203;SDS011;7185;51.854;6.622;2023-04-29T13:03:18;10.75;;;6.70;;
14203;SDS011;7185;51.854;6.622;2023-04-29T13:05:50;12.32;;;7.75;;
14203;SDS011;7185;51.854;6.622;2023-04-29T13:08:23;12.20;;;7.38;;
14203;SDS011;7185;51.854;6.622;2023-04-29T13:10:56;12.35;;;6.97;;
14203;SDS011;7185;51.854;6.622;2023-04-29T13:13:28;9.55;;;7.10;;
14203;SDS011;7185;51.854;6.622;2023-04-29T13:16:01;12.05;;;7.53;;
14203;SDS011;7185;51.854;6.622;2023-04-29T13:18:33;11.38;;;6.63;;
14203;SDS011;7185;51.854;6.622;2023-04-29T13:21:06;12.88;;;6.78;;
14203;SDS011;7185;51.854;6.622;2023-04-29T13:23:37;9.77;;;6.57;;
14203;SDS011;7185;51.854;6.622;2023-04-29T13:26:12;10.02;;;6.72;;
14203;SDS011;7185;51.854;6.622;2023-04-29T13:28:44;8.52;;;5.03;;
14203;SDS011;7185;51.854;6.622;2023-04-29T13:31:17;10.07;;;5.90;;
14203;SDS011;7185;51.854;6.622;2023-04-29T13:33:50;7.60;;;5.15;;
14203;SDS011;7185;51.854;6.622;2023-04-29T13:36:21;8.00;;;6.47;;
14203;SDS011;7185;51.854;6.622;2023-04-29T13:38:57;9.37;;;6.50;;
14203;SDS011;7185;51.854;6.622;2023-04-29T13:41:29;12.90;;;6.90;;
14203;SDS011;7185;51.854;6.622;2023-04-29T13:44:01;10.77;;;6.10;;
14203;SDS011;7185;51.854;6.622;2023-04-29T13:46:35;8.98;;;6.47;;
14203;SDS011;7185;51.854;6.622;2023-04-29T13:49:07;11.23;;;6.50;;
14203;SDS011;7185;51.854;6.622;2023-04-29T13:51:38;11.43;;;7.10;;
14203;SDS011;7185;51.854;6.622;2023-04-29T13:54:10;9.65;;;5.97;;
14203;SDS011;7185;51.854;6.622;2023-04-29T13:56:42;8.88;;;6.43;;
14203;SDS011;7185;51.854;6.622;2023-04-29T13:59:16;10.93;;;6.57;;
14203;SDS011;7185;51.854;6.622;2023-04-29T14:01:52;9.60;;;6.28;;
14203;SDS011;7185;51.854;6.622;2023-04-29T14:04:24;9.65;;;5.72;;
14203;SDS011;7185;51.854;6.622;2023-04-29T14:06:56;7.88;;;5.45;;
14203;SDS011;7185;51.854;6.622;2023-04-29T14:09:28;8.45;;;5.70;;
14203;SDS011;7185;51.854;6.622;2023-04-29T14:12:02;9.63;;;5.97;;
14203;SDS011;7185;51.854;6.622;2023-04-29T14:14:34;8.27;;;5.63;;
14203;SDS011;7185;51.854;6.622;2023-04-29T14:17:07;10.10;;;5.70;;
14203;SDS011;7185;51.854;6.622;2023-04-29T14:19:39;11.48;;;6.22;;
14203;SDS011;7185;51.854;6.622;2023-04-29T14:22:11;9.00;;;5.93;;
14203;SDS011;7185;51.854;6.622;2023-04-29T14:24:43;8.55;;;6.10;;
14203;SDS011;7185;51.854;6.622;2023-04-29T14:27:15;9.02;;;5.97;;
14203;SDS011;7185;51.854;6.622;2023-04-29T14:29:47;7.70;;;5.28;;
14203;SDS011;7185;51.854;6.622;2023-04-29T14:32:22;7.35;;;5.35;;
14203;SDS011;7185;51.854;6.622;2023-04-29T14:35:21;9.50;;;5.85;;
14203;SDS011;7185;51.854;6.622;2023-04-29T14:37:53;9.20;;;5.70;;
14203;SDS011;7185;51.854;6.622;2023-04-29T14:40:30;8.98;;;5.95;;
14203;SDS011;7185;51.854;6.622;2023-04-29T14:43:03;10.95;;;6.07;;
14203;SDS011;7185;51.854;6.622;2023-04-29T14:45:38;8.27;;;5.82;;
14203;SDS011;7185;51.854;6.622;2023-04-29T14:48:12;9.27;;;4.75;;
14203;SDS011;7185;51.854;6.622;2023-04-29T14:50:44;10.77;;;5.63;;
14203;SDS011;7185;51.854;6.622;2023-04-29T14:53:16;7.75;;;4.60;;
14203;SDS011;7185;51.854;6.622;2023-04-29T14:55:50;7.75;;;4.53;;
14203;SDS011;7185;51.854;6.622;2023-04-29T14:58:22;11.15;;;4.72;;
14203;SDS011;7185;51.854;6.622;2023-04-29T15:00:54;6.93;;;4.78;;
14203;SDS011;7185;51.854;6.622;2023-04-29T15:03:28;7.50;;;4.88;;
14203;SDS011;7185;51.854;6.622;2023-04-29T15:06:00;7.22;;;4.68;;
14203;SDS011;7185;51.854;6.622;2023-04-29T15:08:34;7.28;;;4.40;;
14203;SDS011;7185;51.854;6.622;2023-04-29T15:11:07;6.43;;;4.47;;
14203;SDS011;7185;51.854;6.622;2023-04-29T15:13:39;9.68;;;4.68;;
14203;SDS011;7185;51.854;6.622;2023-04-29T15:16:11;5.68;;;4.05;;
14203;SDS011;7185;51.854;6.622;2023-04-29T15:18:44;7.18;;;4.30;;
14203;SDS011;7185;51.854;6.622;2023-04-29T15:21:22;5.85;;;4.05;;